sensor_id;sensor_type;location;lat;lon;timestamp;P1;durP1;ratioP1;P2;durP2;ratioP2
70985;SDS011;58645;43.068;25.610;2022-10-16T00:02:00;16.40;;;8.57;;
70985;SDS011;58645;43.068;25.610;2022-10-16T00:04:26;14.50;;;8.60;;
70985;SDS011;58645;43.068;25.610;2022-10-16T00:06:51;18.67;;;9.23;;
70985;SDS011;58645;43.068;25.610;2022-10-16T00:09:17;13.75;;;8.60;;
70985;SDS011;58645;43.068;25.610;2022-10-16T00:11:43;15.38;;;8.32;;
70985;SDS011;58645;43.068;25.610;2022-10-16T00:14:13;16.40;;;9.38;;
70985;SDS011;58645;43.068;25.610;2022-10-16T00:16:40;15.73;;;9.40;;
70985;SDS011;58645;43.068;25.610;2022-10-16T00:19:06;14.05;;;7.88;;
70985;SDS011;58645;43.068;25.610;2022-10-16T00:21:32;15.32;;;8.73;;
70985;SDS011;58645;43.068;25.610;2022-10-16T00:24:06;16.30;;;8.70;;
70985;SDS011;58645;43.068;25.610;2022-10-16T00:26:34;16.70;;;8.48;;
70985;SDS011;58645;43.068;25.610;2022-10-16T00:29:00;14.52;;;8.70;;
70985;SDS011;58645;43.068;25.610;2022-10-16T00:31:26;13.90;;;8.60;;
70985;SDS011;58645;43.068;25.610;2022-10-16T00:33:52;26.58;;;8.98;;
70985;SDS011;58645;43.068;25.610;2022-10-16T00:36:19;16.40;;;9.38;;
70985;SDS011;58645;43.068;25.610;2022-10-16T00:38:47;15.40;;;8.93;;
70985;SDS011;58645;43.068;25.610;2022-10-16T00:41:20;16.17;;;8.98;;
70985;SDS011;58645;43.068;25.610;2022-10-16T00:46:37;15.98;;;9.30;;
70985;SDS011;58645;43.068;25.610;2022-10-16T00:49:12;17.60;;;10.02;;
70985;SDS011;58645;43.068;25.610;2022-10-16T00:51:45;15.57;;;9.10;;
70985;SDS011;58645;43.068;25.610;2022-10-16T00:54:16;21.27;;;8.90;;
70985;SDS011;58645;43.068;25.610;2022-10-16T00:56:48;15.07;;;9.05;;
70985;SDS011;58645;43.068;25.610;2022-10-16T00:59:16;15.77;;;9.70;;
70985;SDS011;58645;43.068;25.610;2022-10-16T01:01:51;18.77;;;9.57;;
70985;SDS011;58645;43.068;25.610;2022-10-16T01:04:17;16.17;;;9.23;;
70985;SDS011;58645;43.068;25.610;2022-10-16T01:12:18;16.20;;;9.20;;
70985;SDS011;58645;43.068;25.610;2022-10-16T01:17:34;13.90;;;8.73;;
70985;SDS011;58645;43.068;25.610;2022-10-16T01:20:29;15.95;;;9.57;;
70985;SDS011;58645;43.068;25.610;2022-10-16T01:28:40;15.88;;;9.20;;
70985;SDS011;58645;43.068;25.610;2022-10-16T01:31:17;14.00;;;8.30;;
70985;SDS011;58645;43.068;25.610;2022-10-16T01:33:47;17.65;;;10.80;;
70985;SDS011;58645;43.068;25.610;2022-10-16T01:36:25;16.35;;;8.68;;
70985;SDS011;58645;43.068;25.610;2022-10-16T01:38:56;15.38;;;9.18;;
70985;SDS011;58645;43.068;25.610;2022-10-16T01:41:31;17.75;;;10.00;;
70985;SDS011;58645;43.068;25.610;2022-10-16T01:44:17;16.63;;;9.13;;
70985;SDS011;58645;43.068;25.610;2022-10-16T01:46:48;17.90;;;9.23;;
70985;SDS011;58645;43.068;25.610;2022-10-16T01:49:17;20.40;;;10.15;;
70985;SDS011;58645;43.068;25.610;2022-10-16T01:51:44;18.30;;;9.52;;
70985;SDS011;58645;43.068;25.610;2022-10-16T01:54:14;18.02;;;9.82;;
70985;SDS011;58645;43.068;25.610;2022-10-16T01:56:42;19.10;;;10.15;;
70985;SDS011;58645;43.068;25.610;2022-10-16T01:59:12;17.02;;;9.60;;
70985;SDS011;58645;43.068;25.610;2022-10-16T02:01:42;20.45;;;9.27;;
70985;SDS011;58645;43.068;25.610;2022-10-16T02:04:17;18.05;;;9.70;;
70985;SDS011;58645;43.068;25.610;2022-10-16T02:06:48;16.92;;;9.70;;
70985;SDS011;58645;43.068;25.610;2022-10-16T02:09:14;15.70;;;9.27;;
70985;SDS011;58645;43.068;25.610;2022-10-16T02:11:42;19.30;;;9.93;;
70985;SDS011;58645;43.068;25.610;2022-10-16T02:19:04;13.63;;;7.95;;
70985;SDS011;58645;43.068;25.610;2022-10-16T02:21:33;14.32;;;8.45;;
70985;SDS011;58645;43.068;25.610;2022-10-16T02:27:48;14.45;;;8.25;;
70985;SDS011;58645;43.068;25.610;2022-10-16T02:30:07;14.75;;;8.10;;
70985;SDS011;58645;43.068;25.610;2022-10-16T02:32:55;15.25;;;7.85;;
70985;SDS011;58645;43.068;25.610;2022-10-16T02:35:23;15.23;;;8.70;;
70985;SDS011;58645;43.068;25.610;2022-10-16T02:37:50;15.13;;;8.40;;
70985;SDS011;58645;43.068;25.610;2022-10-16T02:40:17;14.18;;;8.48;;
70985;SDS011;58645;43.068;25.610;2022-10-16T02:42:43;16.35;;;8.93;;
70985;SDS011;58645;43.068;25.610;2022-10-16T02:45:09;15.60;;;8.80;;
70985;SDS011;58645;43.068;25.610;2022-10-16T02:47:36;14.68;;;9.05;;
70985;SDS011;58645;43.068;25.610;2022-10-16T02:50:02;14.77;;;8.57;;
70985;SDS011;58645;43.068;25.610;2022-10-16T02:52:29;15.98;;;8.77;;
70985;SDS011;58645;43.068;25.610;2022-10-16T02:54:54;15.82;;;9.35;;
70985;SDS011;58645;43.068;25.610;2022-10-16T02:57:20;14.68;;;8.43;;
70985;SDS011;58645;43.068;25.610;2022-10-16T02:59:46;14.75;;;8.65;;
70985;SDS011;58645;43.068;25.610;2022-10-16T03:02:12;16.13;;;8.88;;
70985;SDS011;58645;43.068;25.610;2022-10-16T03:04:37;16.42;;;8.98;;
70985;SDS011;58645;43.068;25.610;2022-10-16T03:07:03;14.80;;;8.27;;
70985;SDS011;58645;43.068;25.610;2022-10-16T03:09:29;19.63;;;9.20;;
70985;SDS011;58645;43.068;25.610;2022-10-16T03:11:55;17.02;;;9.02;;
70985;SDS011;58645;43.068;25.610;2022-10-16T03:14:21;20.77;;;9.43;;
70985;SDS011;58645;43.068;25.610;2022-10-16T03:16:46;17.77;;;9.40;;
70985;SDS011;58645;43.068;25.610;2022-10-16T03:19:12;14.65;;;8.63;;
70985;SDS011;58645;43.068;25.610;2022-10-16T03:21:38;19.65;;;9.35;;
70985;SDS011;58645;43.068;25.610;2022-10-16T03:24:04;15.25;;;9.10;;
70985;SDS011;58645;43.068;25.610;2022-10-16T03:26:30;16.00;;;8.23;;
70985;SDS011;58645;43.068;25.610;2022-10-16T03:28:56;16.67;;;8.52;;
70985;SDS011;58645;43.068;25.610;2022-10-16T03:31:21;30.92;;;9.15;;
70985;SDS011;58645;43.068;25.610;2022-10-16T03:33:47;13.88;;;8.25;;
70985;SDS011;58645;43.068;25.610;2022-10-16T03:36:13;17.08;;;9.02;;
70985;SDS011;58645;43.068;25.610;2022-10-16T03:38:38;13.40;;;8.25;;
70985;SDS011;58645;43.068;25.610;2022-10-16T03:41:04;13.43;;;8.38;;
70985;SDS011;58645;43.068;25.610;2022-10-16T03:43:32;15.15;;;9.13;;
70985;SDS011;58645;43.068;25.610;2022-10-16T03:45:58;15.35;;;8.35;;
70985;SDS011;58645;43.068;25.610;2022-10-16T03:48:24;13.77;;;8.10;;
70985;SDS011;58645;43.068;25.610;2022-10-16T03:50:50;15.32;;;8.00;;
70985;SDS011;58645;43.068;25.610;2022-10-16T03:53:16;15.40;;;8.85;;
70985;SDS011;58645;43.068;25.610;2022-10-16T03:55:42;17.90;;;7.78;;
70985;SDS011;58645;43.068;25.610;2022-10-16T03:58:08;15.77;;;8.75;;
70985;SDS011;58645;43.068;25.610;2022-10-16T04:00:34;18.02;;;8.55;;
70985;SDS011;58645;43.068;25.610;2022-10-16T04:03:00;13.63;;;8.20;;
70985;SDS011;58645;43.068;25.610;2022-10-16T04:05:26;15.55;;;9.27;;
70985;SDS011;58645;43.068;25.610;2022-10-16T04:07:52;35.58;;;10.05;;
70985;SDS011;58645;43.068;25.610;2022-10-16T04:10:18;14.63;;;8.63;;
70985;SDS011;58645;43.068;25.610;2022-10-16T04:12:44;16.23;;;8.52;;
70985;SDS011;58645;43.068;25.610;2022-10-16T04:15:09;17.98;;;8.48;;
70985;SDS011;58645;43.068;25.610;2022-10-16T04:17:35;15.90;;;9.20;;
70985;SDS011;58645;43.068;25.610;2022-10-16T04:20:01;14.70;;;8.73;;
70985;SDS011;58645;43.068;25.610;2022-10-16T04:22:28;15.63;;;8.27;;
70985;SDS011;58645;43.068;25.610;2022-10-16T04:24:53;13.52;;;8.57;;
70985;SDS011;58645;43.068;25.610;2022-10-16T04:27:19;17.58;;;8.80;;
70985;SDS011;58645;43.068;25.610;2022-10-16T04:29:45;16.88;;;9.13;;
70985;SDS011;58645;43.068;25.610;2022-10-16T04:32:10;15.00;;;8.75;;
70985;SDS011;58645;43.068;25.610;2022-10-16T04:34:36;15.75;;;8.02;;
70985;SDS011;58645;43.068;25.610;2022-10-16T04:37:04;16.63;;;9.20;;
70985;SDS011;58645;43.068;25.610;2022-10-16T04:39:30;14.35;;;8.52;;
70985;SDS011;58645;43.068;25.610;2022-10-16T04:41:56;16.60;;;8.38;;
70985;SDS011;58645;43.068;25.610;2022-10-16T04:44:22;16.27;;;8.07;;
70985;SDS011;58645;43.068;25.610;2022-10-16T04:46:50;16.58;;;9.13;;
70985;SDS011;58645;43.068;25.610;2022-10-16T04:49:16;14.75;;;8.85;;
70985;SDS011;58645;43.068;25.610;2022-10-16T04:51:42;17.48;;;9.32;;
70985;SDS011;58645;43.068;25.610;2022-10-16T04:54:08;17.55;;;9.02;;
70985;SDS011;58645;43.068;25.610;2022-10-16T04:56:34;15.63;;;9.15;;
70985;SDS011;58645;43.068;25.610;2022-10-16T04:59:07;12.93;;;8.25;;
70985;SDS011;58645;43.068;25.610;2022-10-16T05:01:33;14.55;;;8.65;;
70985;SDS011;58645;43.068;25.610;2022-10-16T05:03:59;15.57;;;9.32;;
70985;SDS011;58645;43.068;25.610;2022-10-16T05:06:25;16.88;;;9.18;;
70985;SDS011;58645;43.068;25.610;2022-10-16T05:08:51;15.35;;;9.25;;
70985;SDS011;58645;43.068;25.610;2022-10-16T05:11:16;14.57;;;8.43;;
70985;SDS011;58645;43.068;25.610;2022-10-16T05:13:42;15.30;;;8.38;;
70985;SDS011;58645;43.068;25.610;2022-10-16T05:16:08;17.60;;;8.93;;
70985;SDS011;58645;43.068;25.610;2022-10-16T05:18:33;16.30;;;9.43;;
70985;SDS011;58645;43.068;25.610;2022-10-16T05:20:59;18.60;;;10.70;;
70985;SDS011;58645;43.068;25.610;2022-10-16T05:23:25;16.30;;;9.32;;
70985;SDS011;58645;43.068;25.610;2022-10-16T05:25:54;16.38;;;9.20;;
70985;SDS011;58645;43.068;25.610;2022-10-16T05:28:23;15.68;;;8.55;;
70985;SDS011;58645;43.068;25.610;2022-10-16T05:30:52;13.88;;;7.72;;
70985;SDS011;58645;43.068;25.610;2022-10-16T05:33:22;13.05;;;7.43;;
70985;SDS011;58645;43.068;25.610;2022-10-16T05:35:49;13.52;;;7.78;;
70985;SDS011;58645;43.068;25.610;2022-10-16T05:38:18;13.38;;;8.00;;
70985;SDS011;58645;43.068;25.610;2022-10-16T05:40:50;13.88;;;8.38;;
70985;SDS011;58645;43.068;25.610;2022-10-16T05:43:16;11.52;;;7.68;;
70985;SDS011;58645;43.068;25.610;2022-10-16T05:45:42;11.77;;;7.82;;
70985;SDS011;58645;43.068;25.610;2022-10-16T05:48:08;11.07;;;7.22;;
70985;SDS011;58645;43.068;25.610;2022-10-16T05:50:34;12.90;;;7.63;;
70985;SDS011;58645;43.068;25.610;2022-10-16T05:53:00;11.75;;;7.53;;
70985;SDS011;58645;43.068;25.610;2022-10-16T05:55:25;9.85;;;6.57;;
70985;SDS011;58645;43.068;25.610;2022-10-16T05:57:53;10.52;;;6.95;;
70985;SDS011;58645;43.068;25.610;2022-10-16T06:00:19;10.60;;;6.55;;
70985;SDS011;58645;43.068;25.610;2022-10-16T06:02:45;10.43;;;7.60;;
70985;SDS011;58645;43.068;25.610;2022-10-16T06:05:11;10.95;;;6.60;;
70985;SDS011;58645;43.068;25.610;2022-10-16T06:07:37;10.38;;;7.32;;
70985;SDS011;58645;43.068;25.610;2022-10-16T06:10:03;13.40;;;7.63;;
70985;SDS011;58645;43.068;25.610;2022-10-16T06:12:29;12.32;;;7.82;;
70985;SDS011;58645;43.068;25.610;2022-10-16T06:14:55;11.65;;;7.85;;
70985;SDS011;58645;43.068;25.610;2022-10-16T06:17:21;10.45;;;7.10;;
70985;SDS011;58645;43.068;25.610;2022-10-16T06:19:46;11.13;;;7.43;;
70985;SDS011;58645;43.068;25.610;2022-10-16T06:22:12;9.55;;;7.13;;
70985;SDS011;58645;43.068;25.610;2022-10-16T06:24:38;9.63;;;7.32;;
70985;SDS011;58645;43.068;25.610;2022-10-16T06:27:04;8.77;;;7.30;;
70985;SDS011;58645;43.068;25.610;2022-10-16T06:29:30;11.85;;;7.40;;
70985;SDS011;58645;43.068;25.610;2022-10-16T06:31:55;10.40;;;7.28;;
70985;SDS011;58645;43.068;25.610;2022-10-16T06:34:21;10.25;;;7.53;;
70985;SDS011;58645;43.068;25.610;2022-10-16T06:36:47;10.30;;;7.45;;
70985;SDS011;58645;43.068;25.610;2022-10-16T06:39:13;9.27;;;7.07;;
70985;SDS011;58645;43.068;25.610;2022-10-16T06:41:38;9.48;;;6.78;;
70985;SDS011;58645;43.068;25.610;2022-10-16T06:44:05;8.30;;;6.50;;
70985;SDS011;58645;43.068;25.610;2022-10-16T06:46:32;9.15;;;6.13;;
70985;SDS011;58645;43.068;25.610;2022-10-16T06:48:57;7.75;;;5.85;;
70985;SDS011;58645;43.068;25.610;2022-10-16T06:51:23;9.15;;;6.68;;
70985;SDS011;58645;43.068;25.610;2022-10-16T06:53:54;8.32;;;5.57;;
70985;SDS011;58645;43.068;25.610;2022-10-16T06:56:25;9.40;;;6.00;;
70985;SDS011;58645;43.068;25.610;2022-10-16T06:58:52;7.00;;;5.05;;
70985;SDS011;58645;43.068;25.610;2022-10-16T07:01:20;8.35;;;5.57;;
70985;SDS011;58645;43.068;25.610;2022-10-16T07:03:47;7.60;;;5.93;;
70985;SDS011;58645;43.068;25.610;2022-10-16T07:08:40;8.25;;;5.88;;
70985;SDS011;58645;43.068;25.610;2022-10-16T07:11:12;7.38;;;5.40;;
70985;SDS011;58645;43.068;25.610;2022-10-16T07:13:40;8.10;;;6.03;;
70985;SDS011;58645;43.068;25.610;2022-10-16T07:16:11;7.63;;;5.13;;
70985;SDS011;58645;43.068;25.610;2022-10-16T07:18:38;7.00;;;5.60;;
70985;SDS011;58645;43.068;25.610;2022-10-16T07:23:41;6.20;;;5.40;;
70985;SDS011;58645;43.068;25.610;2022-10-16T07:26:07;8.05;;;5.35;;
70985;SDS011;58645;43.068;25.610;2022-10-16T07:28:34;9.93;;;6.25;;
70985;SDS011;58645;43.068;25.610;2022-10-16T07:31:01;9.00;;;6.65;;
70985;SDS011;58645;43.068;25.610;2022-10-16T07:33:28;8.05;;;5.72;;
70985;SDS011;58645;43.068;25.610;2022-10-16T07:35:54;6.85;;;5.50;;
70985;SDS011;58645;43.068;25.610;2022-10-16T07:38:20;8.98;;;5.22;;
70985;SDS011;58645;43.068;25.610;2022-10-16T07:40:46;8.25;;;5.18;;
70985;SDS011;58645;43.068;25.610;2022-10-16T07:43:12;7.03;;;5.30;;
70985;SDS011;58645;43.068;25.610;2022-10-16T07:45:48;8.80;;;5.70;;
70985;SDS011;58645;43.068;25.610;2022-10-16T07:48:15;9.20;;;5.88;;
70985;SDS011;58645;43.068;25.610;2022-10-16T07:50:42;7.43;;;5.57;;
70985;SDS011;58645;43.068;25.610;2022-10-16T07:53:09;8.32;;;5.45;;
70985;SDS011;58645;43.068;25.610;2022-10-16T07:55:35;8.60;;;5.13;;
70985;SDS011;58645;43.068;25.610;2022-10-16T07:58:00;7.97;;;5.35;;
70985;SDS011;58645;43.068;25.610;2022-10-16T08:00:26;9.38;;;5.50;;
70985;SDS011;58645;43.068;25.610;2022-10-16T08:02:52;6.82;;;5.82;;
70985;SDS011;58645;43.068;25.610;2022-10-16T08:05:18;13.20;;;6.05;;
70985;SDS011;58645;43.068;25.610;2022-10-16T08:07:48;7.72;;;5.20;;
70985;SDS011;58645;43.068;25.610;2022-10-16T08:10:16;8.02;;;5.68;;
70985;SDS011;58645;43.068;25.610;2022-10-16T08:12:42;12.82;;;6.15;;
70985;SDS011;58645;43.068;25.610;2022-10-16T08:15:08;7.75;;;4.88;;
70985;SDS011;58645;43.068;25.610;2022-10-16T08:17:34;8.13;;;5.35;;
70985;SDS011;58645;43.068;25.610;2022-10-16T08:20:00;8.45;;;5.53;;
70985;SDS011;58645;43.068;25.610;2022-10-16T08:22:26;8.02;;;5.47;;
70985;SDS011;58645;43.068;25.610;2022-10-16T08:24:52;9.10;;;5.72;;
70985;SDS011;58645;43.068;25.610;2022-10-16T08:27:18;7.88;;;5.50;;
70985;SDS011;58645;43.068;25.610;2022-10-16T08:29:44;8.32;;;5.88;;
70985;SDS011;58645;43.068;25.610;2022-10-16T08:32:09;10.10;;;5.82;;
70985;SDS011;58645;43.068;25.610;2022-10-16T08:34:35;8.77;;;4.78;;
70985;SDS011;58645;43.068;25.610;2022-10-16T08:37:01;6.57;;;5.28;;
70985;SDS011;58645;43.068;25.610;2022-10-16T08:39:27;7.78;;;5.35;;
70985;SDS011;58645;43.068;25.610;2022-10-16T08:44:42;7.15;;;4.38;;
70985;SDS011;58645;43.068;25.610;2022-10-16T08:47:54;5.57;;;4.07;;
70985;SDS011;58645;43.068;25.610;2022-10-16T08:50:30;5.78;;;4.25;;
70985;SDS011;58645;43.068;25.610;2022-10-16T08:52:58;5.60;;;3.75;;
70985;SDS011;58645;43.068;25.610;2022-10-16T08:57:52;9.38;;;4.22;;
70985;SDS011;58645;43.068;25.610;2022-10-16T09:00:18;7.38;;;3.65;;
70985;SDS011;58645;43.068;25.610;2022-10-16T09:18:59;5.78;;;3.85;;
70985;SDS011;58645;43.068;25.610;2022-10-16T09:21:35;5.43;;;3.47;;
70985;SDS011;58645;43.068;25.610;2022-10-16T09:24:25;5.70;;;3.22;;
70985;SDS011;58645;43.068;25.610;2022-10-16T09:26:50;4.45;;;3.20;;
70985;SDS011;58645;43.068;25.610;2022-10-16T09:29:16;5.80;;;2.95;;
70985;SDS011;58645;43.068;25.610;2022-10-16T09:31:45;8.77;;;3.30;;
70985;SDS011;58645;43.068;25.610;2022-10-16T09:34:33;5.20;;;3.10;;
70985;SDS011;58645;43.068;25.610;2022-10-16T09:36:59;4.20;;;2.92;;
70985;SDS011;58645;43.068;25.610;2022-10-16T09:39:28;6.13;;;3.20;;
70985;SDS011;58645;43.068;25.610;2022-10-16T09:41:54;4.40;;;2.78;;
70985;SDS011;58645;43.068;25.610;2022-10-16T09:46:49;4.63;;;2.83;;
70985;SDS011;58645;43.068;25.610;2022-10-16T09:49:53;8.55;;;3.53;;
70985;SDS011;58645;43.068;25.610;2022-10-16T09:52:42;3.95;;;2.95;;
70985;SDS011;58645;43.068;25.610;2022-10-16T09:55:15;8.27;;;3.00;;
70985;SDS011;58645;43.068;25.610;2022-10-16T09:57:52;6.22;;;3.03;;
70985;SDS011;58645;43.068;25.610;2022-10-16T10:00:19;6.22;;;3.03;;
70985;SDS011;58645;43.068;25.610;2022-10-16T10:02:45;4.03;;;2.47;;
70985;SDS011;58645;43.068;25.610;2022-10-16T10:05:18;5.25;;;2.70;;
70985;SDS011;58645;43.068;25.610;2022-10-16T10:08:00;6.18;;;2.92;;
70985;SDS011;58645;43.068;25.610;2022-10-16T10:10:36;4.15;;;2.83;;
70985;SDS011;58645;43.068;25.610;2022-10-16T10:13:16;5.70;;;2.65;;
70985;SDS011;58645;43.068;25.610;2022-10-16T10:15:46;5.43;;;2.80;;
70985;SDS011;58645;43.068;25.610;2022-10-16T10:18:16;5.93;;;2.88;;
70985;SDS011;58645;43.068;25.610;2022-10-16T10:20:44;5.13;;;3.10;;
70985;SDS011;58645;43.068;25.610;2022-10-16T10:23:23;9.40;;;3.15;;
70985;SDS011;58645;43.068;25.610;2022-10-16T10:28:42;6.57;;;3.10;;
70985;SDS011;58645;43.068;25.610;2022-10-16T10:31:24;5.38;;;3.00;;
70985;SDS011;58645;43.068;25.610;2022-10-16T10:37:04;5.82;;;2.92;;
70985;SDS011;58645;43.068;25.610;2022-10-16T10:39:42;4.78;;;2.97;;
70985;SDS011;58645;43.068;25.610;2022-10-16T10:42:18;5.15;;;2.85;;
70985;SDS011;58645;43.068;25.610;2022-10-16T11:01:05;5.45;;;3.25;;
70985;SDS011;58645;43.068;25.610;2022-10-16T11:06:36;5.03;;;3.05;;
70985;SDS011;58645;43.068;25.610;2022-10-16T11:09:31;4.63;;;3.38;;
70985;SDS011;58645;43.068;25.610;2022-10-16T11:12:11;5.38;;;3.45;;
70985;SDS011;58645;43.068;25.610;2022-10-16T11:14:58;5.60;;;3.15;;
70985;SDS011;58645;43.068;25.610;2022-10-16T11:23:28;6.10;;;3.55;;
70985;SDS011;58645;43.068;25.610;2022-10-16T11:25:39;5.82;;;3.47;;
70985;SDS011;58645;43.068;25.610;2022-10-16T11:28:15;4.45;;;3.20;;
70985;SDS011;58645;43.068;25.610;2022-10-16T11:39:12;4.47;;;3.22;;
70985;SDS011;58645;43.068;25.610;2022-10-16T11:41:55;6.05;;;3.42;;
70985;SDS011;58645;43.068;25.610;2022-10-16T11:55:37;8.15;;;3.42;;
70985;SDS011;58645;43.068;25.610;2022-10-16T12:00:47;6.57;;;3.50;;
70985;SDS011;58645;43.068;25.610;2022-10-16T12:06:31;7.90;;;4.30;;
70985;SDS011;58645;43.068;25.610;2022-10-16T12:11:45;7.45;;;3.13;;
70985;SDS011;58645;43.068;25.610;2022-10-16T12:16:59;7.15;;;4.00;;
70985;SDS011;58645;43.068;25.610;2022-10-16T12:19:25;5.03;;;3.22;;
70985;SDS011;58645;43.068;25.610;2022-10-16T12:21:54;4.45;;;2.70;;
70985;SDS011;58645;43.068;25.610;2022-10-16T12:24:38;5.93;;;3.97;;
70985;SDS011;58645;43.068;25.610;2022-10-16T12:27:19;7.72;;;3.17;;
70985;SDS011;58645;43.068;25.610;2022-10-16T12:29:57;5.55;;;3.45;;
70985;SDS011;58645;43.068;25.610;2022-10-16T12:32:33;5.40;;;3.42;;
70985;SDS011;58645;43.068;25.610;2022-10-16T12:35:01;6.68;;;3.40;;
70985;SDS011;58645;43.068;25.610;2022-10-16T12:37:36;6.43;;;3.03;;
70985;SDS011;58645;43.068;25.610;2022-10-16T12:42:56;17.50;;;3.80;;
70985;SDS011;58645;43.068;25.610;2022-10-16T12:45:29;5.65;;;3.40;;
70985;SDS011;58645;43.068;25.610;2022-10-16T12:47:57;5.68;;;3.17;;
70985;SDS011;58645;43.068;25.610;2022-10-16T12:50:37;4.97;;;3.25;;
70985;SDS011;58645;43.068;25.610;2022-10-16T12:53:19;4.60;;;3.25;;
70985;SDS011;58645;43.068;25.610;2022-10-16T12:55:51;5.10;;;3.35;;
70985;SDS011;58645;43.068;25.610;2022-10-16T13:01:12;7.57;;;3.20;;
70985;SDS011;58645;43.068;25.610;2022-10-16T13:03:57;5.57;;;3.10;;
70985;SDS011;58645;43.068;25.610;2022-10-16T13:07:02;6.55;;;4.30;;
70985;SDS011;58645;43.068;25.610;2022-10-16T13:15:36;9.38;;;3.53;;
70985;SDS011;58645;43.068;25.610;2022-10-16T13:18:38;7.43;;;3.63;;
70985;SDS011;58645;43.068;25.610;2022-10-16T13:21:27;6.35;;;3.55;;
70985;SDS011;58645;43.068;25.610;2022-10-16T13:24:12;6.88;;;3.70;;
70985;SDS011;58645;43.068;25.610;2022-10-16T13:29:31;4.97;;;3.25;;
70985;SDS011;58645;43.068;25.610;2022-10-16T13:31:58;5.00;;;3.92;;
70985;SDS011;58645;43.068;25.610;2022-10-16T13:34:26;5.65;;;3.50;;
70985;SDS011;58645;43.068;25.610;2022-10-16T13:44:42;5.25;;;3.33;;
70985;SDS011;58645;43.068;25.610;2022-10-16T13:47:26;5.68;;;3.20;;
70985;SDS011;58645;43.068;25.610;2022-10-16T13:50:00;5.70;;;3.72;;
70985;SDS011;58645;43.068;25.610;2022-10-16T13:52:28;6.68;;;3.55;;
70985;SDS011;58645;43.068;25.610;2022-10-16T13:54:54;6.30;;;3.40;;
70985;SDS011;58645;43.068;25.610;2022-10-16T13:57:21;7.35;;;4.30;;
70985;SDS011;58645;43.068;25.610;2022-10-16T13:59:49;8.68;;;3.83;;
70985;SDS011;58645;43.068;25.610;2022-10-16T14:05:02;6.28;;;3.22;;
70985;SDS011;58645;43.068;25.610;2022-10-16T14:07:30;8.98;;;3.97;;
70985;SDS011;58645;43.068;25.610;2022-10-16T14:10:05;5.82;;;3.67;;
70985;SDS011;58645;43.068;25.610;2022-10-16T14:12:44;5.43;;;3.50;;
70985;SDS011;58645;43.068;25.610;2022-10-16T14:15:17;7.40;;;3.70;;
70985;SDS011;58645;43.068;25.610;2022-10-16T14:17:45;6.55;;;3.97;;
70985;SDS011;58645;43.068;25.610;2022-10-16T14:20:15;5.40;;;3.15;;
70985;SDS011;58645;43.068;25.610;2022-10-16T14:22:42;5.85;;;3.30;;
70985;SDS011;58645;43.068;25.610;2022-10-16T14:30:49;6.70;;;3.67;;
70985;SDS011;58645;43.068;25.610;2022-10-16T14:33:21;7.25;;;3.75;;
70985;SDS011;58645;43.068;25.610;2022-10-16T14:35:59;4.88;;;3.30;;
70985;SDS011;58645;43.068;25.610;2022-10-16T14:38:30;5.93;;;3.75;;
70985;SDS011;58645;43.068;25.610;2022-10-16T14:40:57;11.05;;;7.03;;
70985;SDS011;58645;43.068;25.610;2022-10-16T14:43:34;7.03;;;4.07;;
70985;SDS011;58645;43.068;25.610;2022-10-16T14:46:09;6.18;;;3.78;;
70985;SDS011;58645;43.068;25.610;2022-10-16T14:48:39;8.32;;;3.67;;
70985;SDS011;58645;43.068;25.610;2022-10-16T14:51:11;9.00;;;3.60;;
70985;SDS011;58645;43.068;25.610;2022-10-16T14:53:40;6.45;;;3.67;;
70985;SDS011;58645;43.068;25.610;2022-10-16T14:56:09;9.27;;;4.03;;
70985;SDS011;58645;43.068;25.610;2022-10-16T14:58:47;5.32;;;3.50;;
70985;SDS011;58645;43.068;25.610;2022-10-16T15:01:14;10.60;;;7.72;;
70985;SDS011;58645;43.068;25.610;2022-10-16T15:03:40;5.97;;;3.45;;
70985;SDS011;58645;43.068;25.610;2022-10-16T15:06:10;22.55;;;12.93;;
70985;SDS011;58645;43.068;25.610;2022-10-16T15:08:37;8.60;;;3.97;;
70985;SDS011;58645;43.068;25.610;2022-10-16T15:11:03;5.80;;;3.63;;
70985;SDS011;58645;43.068;25.610;2022-10-16T15:13:30;8.45;;;4.00;;
70985;SDS011;58645;43.068;25.610;2022-10-16T15:15:55;7.85;;;4.20;;
70985;SDS011;58645;43.068;25.610;2022-10-16T15:18:21;12.93;;;6.60;;
70985;SDS011;58645;43.068;25.610;2022-10-16T15:20:50;16.98;;;8.02;;
70985;SDS011;58645;43.068;25.610;2022-10-16T15:23:17;6.63;;;4.25;;
70985;SDS011;58645;43.068;25.610;2022-10-16T15:25:54;8.07;;;4.18;;
70985;SDS011;58645;43.068;25.610;2022-10-16T15:28:21;13.02;;;4.30;;
70985;SDS011;58645;43.068;25.610;2022-10-16T15:30:49;6.68;;;4.22;;
70985;SDS011;58645;43.068;25.610;2022-10-16T15:33:17;5.97;;;3.70;;
70985;SDS011;58645;43.068;25.610;2022-10-16T15:35:48;9.02;;;4.03;;
70985;SDS011;58645;43.068;25.610;2022-10-16T15:38:15;10.07;;;4.45;;
70985;SDS011;58645;43.068;25.610;2022-10-16T15:40:43;8.02;;;4.55;;
70985;SDS011;58645;43.068;25.610;2022-10-16T15:43:09;9.75;;;4.45;;
70985;SDS011;58645;43.068;25.610;2022-10-16T15:45:35;8.73;;;4.30;;
70985;SDS011;58645;43.068;25.610;2022-10-16T15:48:01;8.20;;;4.50;;
70985;SDS011;58645;43.068;25.610;2022-10-16T15:50:27;8.15;;;4.75;;
70985;SDS011;58645;43.068;25.610;2022-10-16T15:52:52;8.43;;;4.32;;
70985;SDS011;58645;43.068;25.610;2022-10-16T15:55:18;5.75;;;4.25;;
70985;SDS011;58645;43.068;25.610;2022-10-16T15:57:44;8.13;;;4.80;;
70985;SDS011;58645;43.068;25.610;2022-10-16T16:00:11;6.60;;;4.47;;
70985;SDS011;58645;43.068;25.610;2022-10-16T16:02:40;8.18;;;4.40;;
70985;SDS011;58645;43.068;25.610;2022-10-16T16:05:07;6.32;;;4.25;;
70985;SDS011;58645;43.068;25.610;2022-10-16T16:07:37;7.20;;;4.28;;
70985;SDS011;58645;43.068;25.610;2022-10-16T16:10:05;7.40;;;4.10;;
70985;SDS011;58645;43.068;25.610;2022-10-16T16:12:33;8.90;;;4.38;;
70985;SDS011;58645;43.068;25.610;2022-10-16T16:14:59;8.00;;;4.93;;
70985;SDS011;58645;43.068;25.610;2022-10-16T16:17:25;8.98;;;4.70;;
70985;SDS011;58645;43.068;25.610;2022-10-16T16:19:51;7.90;;;4.75;;
70985;SDS011;58645;43.068;25.610;2022-10-16T16:22:17;9.48;;;5.43;;
70985;SDS011;58645;43.068;25.610;2022-10-16T16:24:42;7.55;;;5.07;;
70985;SDS011;58645;43.068;25.610;2022-10-16T16:27:08;7.15;;;4.82;;
70985;SDS011;58645;43.068;25.610;2022-10-16T16:29:34;8.32;;;4.97;;
70985;SDS011;58645;43.068;25.610;2022-10-16T16:32:00;7.72;;;4.57;;
70985;SDS011;58645;43.068;25.610;2022-10-16T16:34:26;8.18;;;4.57;;
70985;SDS011;58645;43.068;25.610;2022-10-16T16:36:53;7.07;;;4.47;;
70985;SDS011;58645;43.068;25.610;2022-10-16T16:39:20;6.97;;;4.03;;
70985;SDS011;58645;43.068;25.610;2022-10-16T16:41:46;9.65;;;4.95;;
70985;SDS011;58645;43.068;25.610;2022-10-16T16:44:12;7.78;;;4.68;;
70985;SDS011;58645;43.068;25.610;2022-10-16T16:46:39;10.18;;;4.88;;
70985;SDS011;58645;43.068;25.610;2022-10-16T16:49:06;7.60;;;4.88;;
70985;SDS011;58645;43.068;25.610;2022-10-16T16:51:32;8.93;;;5.15;;
70985;SDS011;58645;43.068;25.610;2022-10-16T16:53:58;11.27;;;5.03;;
70985;SDS011;58645;43.068;25.610;2022-10-16T16:56:24;7.97;;;5.07;;
70985;SDS011;58645;43.068;25.610;2022-10-16T16:58:52;8.48;;;5.05;;
70985;SDS011;58645;43.068;25.610;2022-10-16T17:01:20;10.02;;;5.50;;
70985;SDS011;58645;43.068;25.610;2022-10-16T17:03:49;9.02;;;4.65;;
70985;SDS011;58645;43.068;25.610;2022-10-16T17:06:17;8.18;;;5.18;;
70985;SDS011;58645;43.068;25.610;2022-10-16T17:08:43;8.95;;;5.18;;